Peristerion, Greece
Current Conditions -  °F | °C
As of 3:20 AM on Thursday 23 Oct 2014 (Local Time) from LGEL Reporting Station
Broken Clouds Broken Clouds  
Wind Chill: 21°   Ceiling: 7000
Heat Index: 21°   Visibility: 6mi
Dew Point: 16°   Wind: 12mph
Humidity: 73%   Direction: 170°S
Pressure: 29.59"   Gusts: 23mph
Location:  38.02°N, 23.7°E
Report Text: LGEL 230020Z 17010G20KT 9999 FEW025 BKN070 21/16 Q1002
Loading
Personal Weather Stations






























Interactive Weather Map
Tropical Storm Tracking
New forecast layout! Learn more

10-Day Weather Forecast

Advertisements
Track Severe Weather on mobile